Time;durP1;ratioP1;P1;durP2;ratioP2;P2;SDS_P1;SDS_P2;PMS_P1;PMS_P2;Temp;Humidity;BMP_temperature;BMP_pressure;BME280_temperature;BME280_humidity;BME280_pressure;Samples;Min_cycle;Max_cycle;Signal;HPM_P1;HPM_P2
2023/10/02 00:05:06;;;;;;;8.35;1.67;;;26.40;55.80;;;;;;5060122;28;20522;-69
2023/10/02 00:07:37;;;;;;;7.03;1.60;;;26.40;56.30;;;;;;5053261;28;20103;-67
2023/10/02 00:10:05;;;;;;;9.63;2.10;;;26.40;56.30;;;;;;5051923;28;20093;-69
2023/10/02 00:12:34;;;;;;;10.07;2.80;;;26.20;55.60;;;;;;5052242;28;20134;-63
2023/10/02 00:15:20;;;;;;;15.35;2.53;;;26.10;55.20;;;;;;5059160;28;20586;-63
2023/10/02 00:17:48;;;;;;;9.20;1.88;;;25.90;55.50;;;;;;5054664;28;20108;-63
2023/10/02 00:20:21;;;;;;;45.88;1.73;;;25.70;55.70;;;;;;5051592;28;20060;-62
2023/10/02 00:22:48;;;;;;;8.13;1.40;;;25.30;55.80;;;;;;5050468;28;20060;-65
2023/10/02 00:25:16;;;;;;;5.10;1.30;;;25.10;56.20;;;;;;5052978;28;20467;-63
2023/10/02 00:27:48;;;;;;;11.90;1.38;;;25.10;56.40;;;;;;5053594;28;22322;-64
2023/10/02 00:30:18;;;;;;;16.10;1.70;;;25.10;56.00;;;;;;5057058;28;20109;-64
2023/10/02 00:32:49;;;;;;;24.48;2.67;;;25.00;56.10;;;;;;5063925;28;20060;-64
2023/10/02 00:35:16;;;;;;;23.88;2.50;;;24.90;56.00;;;;;;5055040;28;20088;-66
2023/10/02 00:37:52;;;;;;;29.80;4.10;;;24.90;55.90;;;;;;5052636;28;20106;-63
2023/10/02 00:40:25;;;;;;;16.95;2.67;;;24.80;55.60;;;;;;5054695;28;20097;-64
2023/10/02 00:42:56;;;;;;;20.08;2.97;;;24.60;54.70;;;;;;5054542;28;20057;-63
2023/10/02 00:45:30;;;;;;;19.88;3.15;;;24.60;54.40;;;;;;5059915;28;20509;-64
2023/10/02 00:50:49;;;;;;;13.15;2.20;;;24.50;54.70;;;;;;5053100;28;20128;-64
2023/10/02 00:53:24;;;;;;;13.38;2.67;;;24.30;55.80;;;;;;5050941;28;20505;-62
2023/10/02 00:55:51;;;;;;;13.48;2.63;;;24.10;56.40;;;;;;5050031;28;20505;-65
2023/10/02 00:58:19;;;;;;;16.08;2.70;;;24.10;56.70;;;;;;5058320;28;20066;-64
2023/10/02 01:00:50;;;;;;;10.15;2.30;;;24.10;56.80;;;;;;5057111;28;20056;-64
2023/10/02 01:03:17;;;;;;;14.80;2.55;;;24.00;57.00;;;;;;5060284;28;20060;-62
2023/10/02 01:05:50;;;;;;;17.90;2.97;;;23.90;57.00;;;;;;5052821;28;20555;-63
2023/10/02 01:08:23;;;;;;;21.10;3.05;;;23.80;57.20;;;;;;5050797;28;20052;-63
2023/10/02 01:11:02;;;;;;;16.90;3.28;;;23.90;57.10;;;;;;5049981;28;20057;-63
2023/10/02 01:13:38;;;;;;;22.63;4.55;;;23.90;56.80;;;;;;5054901;28;20434;-65
2023/10/02 01:16:11;;;;;;;21.45;3.30;;;23.80;56.90;;;;;;5054923;28;20472;-64
2023/10/02 01:18:39;;;;;;;16.52;3.03;;;23.80;57.00;;;;;;5053550;28;20071;-64
2023/10/02 01:21:11;;;;;;;18.45;3.20;;;23.80;56.70;;;;;;5059795;28;20052;-69
2023/10/02 01:24:06;;;;;;;18.00;3.60;;;23.80;56.70;;;;;;5060302;28;20135;-62
2023/10/02 01:26:40;;;;;;;36.42;4.10;;;23.90;56.70;;;;;;5049474;28;20075;-65
2023/10/02 01:29:07;;;;;;;22.15;3.33;;;23.90;56.60;;;;;;5050776;28;20519;-63
2023/10/02 01:31:51;;;;;;;15.15;2.80;;;24.00;56.20;;;;;;5051232;28;20448;-60
2023/10/02 01:34:33;;;;;;;16.10;3.08;;;23.80;56.30;;;;;;5052492;28;20076;-62
2023/10/02 01:37:32;;;;;;;17.58;3.58;;;23.80;56.60;;;;;;5050924;28;20095;-63
2023/10/02 01:40:28;;;;;;;9.20;2.60;;;23.80;56.80;;;;;;5057930;28;20132;-64
2023/10/02 01:42:44;;;;;;;8.33;2.27;;;23.90;57.10;;;;;;5063191;28;20118;-62
2023/10/02 01:45:10;;;;;;;12.18;2.88;;;23.80;57.00;;;;;;5054686;28;20171;-63
2023/10/02 01:47:41;;;;;;;11.00;2.85;;;23.60;57.20;;;;;;5051456;28;20097;-63
2023/10/02 01:50:09;;;;;;;14.63;3.08;;;23.50;57.60;;;;;;5054306;28;20453;-65
2023/10/02 01:52:37;;;;;;;9.75;2.88;;;23.40;57.60;;;;;;5054526;28;20564;-66
2023/10/02 01:55:04;;;;;;;11.88;3.83;;;23.40;57.70;;;;;;5053922;28;20536;-66
2023/10/02 01:57:34;;;;;;;11.98;3.75;;;23.40;57.70;;;;;;5059013;28;20150;-63
2023/10/02 02:00:13;;;;;;;14.50;3.20;;;23.40;57.60;;;;;;5054315;28;20080;-63
2023/10/02 02:02:41;;;;;;;13.95;3.75;;;23.40;57.90;;;;;;5055467;28;20079;-64
2023/10/02 02:05:14;;;;;;;18.55;3.20;;;23.30;57.70;;;;;;5056715;28;20089;-63
2023/10/02 02:07:40;;;;;;;17.67;3.40;;;23.20;57.70;;;;;;5056510;28;20102;-62
2023/10/02 02:10:08;;;;;;;17.63;4.47;;;23.20;57.80;;;;;;5054906;28;20084;-62
2023/10/02 02:12:44;;;;;;;15.07;6.10;;;23.20;57.80;;;;;;5064196;28;20102;-62
2023/10/02 02:15:11;;;;;;;15.32;3.17;;;23.20;57.70;;;;;;5053997;28;20084;-63
2023/10/02 02:17:38;;;;;;;16.20;4.20;;;23.20;57.70;;;;;;5057656;28;20575;-63
2023/10/02 02:20:11;;;;;;;12.70;3.58;;;23.10;57.60;;;;;;5051581;28;20513;-63
2023/10/02 02:22:38;;;;;;;12.55;3.25;;;23.10;57.50;;;;;;5051655;28;20072;-63
2023/10/02 02:25:04;;;;;;;13.52;3.20;;;23.10;57.30;;;;;;5052163;28;20817;-63
2023/10/02 02:27:31;;;;;;;20.58;4.10;;;23.10;57.40;;;;;;5056748;28;20087;-63
2023/10/02 02:29:59;;;;;;;15.30;4.38;;;23.00;57.50;;;;;;5054462;28;20085;-64
2023/10/02 02:32:54;;;;;;;25.80;4.70;;;23.00;57.40;;;;;;5051174;28;20099;-64
2023/10/02 02:35:21;;;;;;;21.35;5.15;;;23.00;57.40;;;;;;5051716;28;20073;-63
2023/10/02 02:37:50;;;;;;;30.90;6.40;;;22.90;57.80;;;;;;5050494;28;20520;-61
2023/10/02 02:40:22;;;;;;;27.55;4.40;;;22.80;58.30;;;;;;5051080;28;20069;-64
2023/10/02 02:42:52;;;;;;;26.30;4.05;;;22.60;58.50;;;;;;5058558;28;20080;-65
2023/10/02 02:45:28;;;;;;;21.13;4.18;;;22.60;59.00;;;;;;5053460;28;20083;-62
2023/10/02 02:48:03;;;;;;;26.17;4.13;;;22.50;59.10;;;;;;5061674;28;20160;-62
2023/10/02 02:50:33;;;;;;;25.02;5.15;;;22.50;59.40;;;;;;5056503;28;20138;-65
2023/10/02 02:55:46;;;;;;;23.55;4.63;;;22.40;59.90;;;;;;5053292;28;20075;-62
2023/10/02 02:58:12;;;;;;;25.83;4.43;;;22.30;60.20;;;;;;5058083;28;20100;-62
2023/10/02 03:00:39;;;;;;;17.30;4.75;;;22.20;60.60;;;;;;5055217;28;20084;-62
2023/10/02 03:03:30;;;;;;;26.38;4.60;;;22.10;60.50;;;;;;5052685;28;20430;-63
2023/10/02 03:05:58;;;;;;;24.48;5.10;;;22.00;60.60;;;;;;5061911;28;20126;-63
2023/10/02 03:08:46;;;;;;;16.83;4.13;;;22.10;60.60;;;;;;5052566;28;20075;-63
2023/10/02 03:11:16;;;;;;;15.18;3.97;;;21.90;60.00;;;;;;5055854;28;20092;-62
2023/10/02 03:13:43;;;;;;;14.65;3.40;;;22.00;59.70;;;;;;5059587;28;20172;-63
2023/10/02 03:16:17;;;;;;;28.08;4.68;;;21.90;59.50;;;;;;5054459;28;20098;-64
2023/10/02 03:18:48;;;;;;;25.35;4.50;;;21.90;59.10;;;;;;5054220;28;20096;-64
2023/10/02 03:21:24;;;;;;;23.08;4.43;;;21.80;59.00;;;;;;5056299;28;20164;-62
2023/10/02 03:24:00;;;;;;;24.50;3.90;;;21.80;58.70;;;;;;5058874;28;20082;-63
2023/10/02 03:26:37;;;;;;;25.08;4.45;;;21.80;58.30;;;;;;5055587;28;20076;-64
2023/10/02 03:29:06;;;;;;;26.67;3.88;;;21.70;57.90;;;;;;5054189;28;20127;-61
2023/10/02 03:31:43;;;;;;;28.88;4.03;;;21.70;57.60;;;;;;5058471;28;20489;-64
2023/10/02 03:34:29;;;;;;;26.45;4.80;;;21.70;57.60;;;;;;5054833;28;20079;-62
2023/10/02 03:39:53;;;;;;;21.27;3.95;;;21.80;57.10;;;;;;5052341;28;20156;-67
2023/10/02 03:42:25;;;;;;;17.60;4.05;;;21.80;57.10;;;;;;5055232;28;20073;-64
2023/10/02 03:44:54;;;;;;;21.85;4.50;;;21.70;57.00;;;;;;5051733;28;20083;-63
2023/10/02 03:47:22;;;;;;;20.15;4.85;;;21.80;57.10;;;;;;5054500;28;20162;-63
2023/10/02 03:49:50;;;;;;;20.88;3.97;;;21.70;57.00;;;;;;5054785;28;20081;-62
2023/10/02 03:52:18;;;;;;;27.20;4.47;;;21.70;57.30;;;;;;5058455;28;20093;-63
2023/10/02 03:54:54;;;;;;;29.05;4.32;;;21.80;57.40;;;;;;5052290;28;20535;-64
2023/10/02 03:57:47;;;;;;;13.50;3.50;;;21.90;57.40;;;;;;5063043;28;20550;-64
2023/10/02 04:00:19;;;;;;;10.90;2.83;;;22.10;57.20;;;;;;5053794;28;20087;-65
2023/10/02 04:02:56;;;;;;;18.52;3.95;;;22.30;57.00;;;;;;5057845;28;20175;-67
2023/10/02 04:05:34;;;;;;;14.35;3.08;;;22.30;56.90;;;;;;5056087;28;20082;-67
2023/10/02 04:08:33;;;;;;;15.82;3.15;;;22.20;57.10;;;;;;5061491;28;20493;-68
2023/10/02 04:11:03;;;;;;;20.00;3.50;;;22.20;57.50;;;;;;5053383;28;20161;-66
2023/10/02 04:13:38;;;;;;;18.85;3.20;;;22.20;57.40;;;;;;5054499;28;20490;-68
2023/10/02 04:18:58;;;;;;;21.40;3.15;;;22.00;57.90;;;;;;5054688;28;20180;-65
2023/10/02 04:21:25;;;;;;;16.00;3.17;;;22.20;57.50;;;;;;5052015;28;20069;-63
2023/10/02 04:23:56;;;;;;;18.42;4.25;;;22.30;57.50;;;;;;5049446;28;20170;-63
2023/10/02 04:26:24;;;;;;;19.55;3.90;;;22.30;57.50;;;;;;5055320;28;20082;-63
2023/10/02 04:31:36;;;;;;;14.43;4.18;;;22.10;57.80;;;;;;5051312;28;20086;-64
2023/10/02 04:36:48;;;;;;;10.00;4.00;;;22.20;57.80;;;;;;5055550;28;20080;-65
2023/10/02 04:42:14;;;;;;;12.57;4.22;;;22.20;58.00;;;;;;5049824;28;20099;-63
2023/10/02 04:44:48;;;;;;;9.90;3.67;;;21.90;58.20;;;;;;5058845;28;20437;-64
2023/10/02 04:47:20;;;;;;;14.57;3.75;;;21.90;59.20;;;;;;5057868;28;20083;-62
2023/10/02 04:55:44;;;;;;;14.80;4.05;;;21.80;58.60;;;;;;4987369;28;20502;-64
2023/10/02 04:58:18;;;;;;;17.20;3.80;;;21.80;58.70;;;;;;4990392;28;20105;-65
2023/10/02 05:03:53;;;;;;;10.25;4.28;;;21.80;58.90;;;;;;4984651;28;20087;-65
2023/10/02 05:06:44;;;;;;;11.25;4.30;;;21.70;59.20;;;;;;4986060;28;20465;-66
2023/10/02 05:11:55;;;;;;;15.23;4.70;;;21.50;60.10;;;;;;4968826;28;20150;-62
2023/10/02 05:14:29;;;;;;;17.17;4.18;;;21.40;60.30;;;;;;4986001;28;20539;-63
2023/10/02 05:17:41;;;;;;;12.30;4.13;;;21.40;60.60;;;;;;4985237;28;20667;-65
2023/10/02 05:20:07;;;;;;;14.10;4.22;;;21.40;61.00;;;;;;4984144;28;20163;-63
2023/10/02 05:22:36;;;;;;;15.35;3.90;;;21.20;61.50;;;;;;4985196;28;20678;-64
2023/10/02 05:25:07;;;;;;;7.90;3.28;;;21.30;61.40;;;;;;4996267;28;20080;-64
2023/10/02 05:27:36;;;;;;;10.35;4.18;;;21.40;61.40;;;;;;4990129;28;20085;-65
2023/10/02 05:30:12;;;;;;;12.55;4.70;;;21.30;61.70;;;;;;5026798;28;20090;-64
2023/10/02 05:32:40;;;;;;;13.50;3.83;;;21.30;61.60;;;;;;5049508;28;20085;-65
2023/10/02 05:37:45;;;;;;;17.30;3.50;;;21.20;61.90;;;;;;5057697;28;20086;-65
2023/10/02 05:51:09;;;;;;;26.77;15.38;;;21.10;62.50;;;;;;5051351;28;20458;-63
2023/10/02 05:53:37;;;;;;;13.98;4.45;;;20.90;62.70;;;;;;5049488;28;20563;-64
2023/10/02 05:56:12;;;;;;;15.00;4.60;;;20.80;62.50;;;;;;5048823;28;20103;-62
2023/10/02 05:58:44;;;;;;;10.55;3.85;;;20.90;62.60;;;;;;5056083;28;20093;-64
2023/10/02 06:01:18;;;;;;;9.90;3.60;;;20.80;62.50;;;;;;5052973;28;20636;-64
2023/10/02 06:03:56;;;;;;;15.65;3.95;;;20.90;62.50;;;;;;5052930;28;20071;-66
2023/10/02 06:06:24;;;;;;;10.35;3.67;;;20.80;62.70;;;;;;5054080;28;20888;-62
2023/10/02 06:09:12;;;;;;;10.43;3.58;;;20.80;62.60;;;;;;5051969;28;20078;-65
2023/10/02 06:12:02;;;;;;;8.63;3.45;;;20.80;62.40;;;;;;5064453;28;20078;-61
2023/10/02 06:14:27;;;;;;;12.00;3.10;;;20.70;62.20;;;;;;5052309;28;20094;-62
2023/10/02 06:16:54;;;;;;;8.50;3.22;;;20.70;62.10;;;;;;5055114;28;20083;-62
2023/10/02 06:19:20;;;;;;;12.48;3.83;;;20.80;61.80;;;;;;5053143;28;20097;-61
2023/10/02 06:24:30;;;;;;;12.48;3.78;;;20.70;61.90;;;;;;5058184;28;20570;-63
2023/10/02 06:26:57;;;;;;;13.07;3.97;;;20.60;61.80;;;;;;5053264;28;20095;-63
2023/10/02 06:29:31;;;;;;;9.25;3.13;;;20.70;61.80;;;;;;5056294;28;20087;-61
2023/10/02 06:31:58;;;;;;;13.38;3.92;;;20.70;61.70;;;;;;5059058;28;20085;-64
2023/10/02 06:34:36;;;;;;;7.75;3.17;;;20.80;61.50;;;;;;5059273;28;20099;-63
2023/10/02 06:37:07;;;;;;;13.45;2.92;;;20.70;61.70;;;;;;5055642;28;20081;-64
2023/10/02 06:39:37;;;;;;;7.65;3.00;;;20.60;62.10;;;;;;5052254;28;20110;-62
2023/10/02 06:42:05;;;;;;;10.38;3.10;;;20.60;62.40;;;;;;5056054;28;20117;-62
2023/10/02 06:44:41;;;;;;;11.88;3.03;;;20.50;62.70;;;;;;5060270;28;20106;-63
2023/10/02 06:47:13;;;;;;;8.60;3.33;;;20.50;62.90;;;;;;5055784;28;20104;-64
2023/10/02 06:49:41;;;;;;;6.95;3.33;;;20.40;63.10;;;;;;5056279;28;20135;-63
2023/10/02 06:52:15;;;;;;;7.43;3.17;;;20.40;63.30;;;;;;5054658;28;20075;-65
2023/10/02 06:54:48;;;;;;;8.52;2.85;;;20.40;63.60;;;;;;5054501;28;20113;-63
2023/10/02 06:57:20;;;;;;;11.38;3.28;;;20.40;63.60;;;;;;5051099;28;20481;-64
2023/10/02 06:59:51;;;;;;;7.60;3.20;;;20.10;64.20;;;;;;5057252;28;20158;-64
2023/10/02 07:02:26;;;;;;;7.60;2.75;;;20.10;64.30;;;;;;5055574;28;20079;-65
2023/10/02 07:04:56;;;;;;;9.75;3.40;;;20.20;64.60;;;;;;5054297;28;20079;-65
2023/10/02 07:07:29;;;;;;;13.10;3.10;;;20.20;64.40;;;;;;5052050;28;20132;-67
2023/10/02 07:10:07;;;;;;;10.85;2.90;;;20.10;64.90;;;;;;5060942;28;20767;-68
2023/10/02 07:12:41;;;;;;;11.00;3.45;;;20.10;65.10;;;;;;5059587;28;20089;-67
2023/10/02 07:15:13;;;;;;;7.38;2.22;;;20.00;65.40;;;;;;5055877;28;20156;-67
2023/10/02 07:17:47;;;;;;;11.48;2.92;;;20.00;65.60;;;;;;5054333;28;20115;-65
2023/10/02 07:20:20;;;;;;;7.72;2.88;;;20.00;65.70;;;;;;5052228;28;20075;-65
2023/10/02 07:22:48;;;;;;;7.35;2.67;;;19.90;65.60;;;;;;5053395;28;20517;-66
2023/10/02 07:25:20;;;;;;;7.55;3.15;;;19.90;65.70;;;;;;5051503;28;20561;-62
2023/10/02 07:27:49;;;;;;;9.82;3.25;;;19.80;65.80;;;;;;5065770;28;20651;-64
2023/10/02 07:30:26;;;;;;;10.70;2.58;;;19.80;66.00;;;;;;5053532;28;20566;-63
2023/10/02 07:33:02;;;;;;;9.00;3.35;;;19.80;66.00;;;;;;5056903;28;20199;-64
2023/10/02 07:35:29;;;;;;;9.83;3.20;;;19.90;66.00;;;;;;5056233;28;20086;-63
2023/10/02 07:37:58;;;;;;;8.55;2.95;;;19.90;65.90;;;;;;5057793;28;20464;-64
2023/10/02 07:40:27;;;;;;;10.25;3.15;;;19.80;65.90;;;;;;5062898;28;20170;-63
2023/10/02 07:42:54;;;;;;;9.15;3.00;;;19.80;66.00;;;;;;5052297;28;20088;-65
2023/10/02 07:45:26;;;;;;;9.55;2.92;;;19.80;67.00;;;;;;5053301;28;20111;-64
2023/10/02 07:48:08;;;;;;;11.00;2.92;;;19.70;66.00;;;;;;5052737;28;20083;-63
2023/10/02 07:50:36;;;;;;;8.77;2.88;;;19.60;66.20;;;;;;5053035;28;20093;-65
2023/10/02 07:53:06;;;;;;;7.20;2.85;;;19.70;66.00;;;;;;5053341;28;20129;-64
2023/10/02 07:55:42;;;;;;;11.45;3.08;;;19.70;66.00;;;;;;5056057;28;20075;-66
2023/10/02 07:58:13;;;;;;;10.10;3.13;;;19.70;66.00;;;;;;5057493;28;20130;-64
2023/10/02 08:00:41;;;;;;;6.80;3.20;;;19.60;65.70;;;;;;5061050;28;20094;-65
2023/10/02 08:05:56;;;;;;;8.38;3.10;;;19.70;65.50;;;;;;5052919;28;20086;-65
2023/10/02 08:08:32;;;;;;;8.20;3.17;;;19.70;65.50;;;;;;5052248;28;20085;-66
2023/10/02 08:11:06;;;;;;;11.53;3.40;;;19.60;65.60;;;;;;5055550;28;20433;-65
2023/10/02 08:13:32;;;;;;;10.20;3.28;;;19.70;65.30;;;;;;5052734;28;21134;-65
2023/10/02 08:16:15;;;;;;;7.95;2.70;;;19.70;64.90;;;;;;5053419;28;20595;-64
2023/10/02 08:19:05;;;;;;;8.52;2.83;;;19.70;65.00;;;;;;5053553;28;21044;-64
2023/10/02 08:21:35;;;;;;;9.75;2.80;;;19.60;64.80;;;;;;5052624;28;20086;-63
2023/10/02 08:24:11;;;;;;;9.10;2.88;;;19.70;64.80;;;;;;5053016;28;20075;-63
2023/10/02 08:26:43;;;;;;;5.40;2.38;;;19.70;64.50;;;;;;5050988;28;20534;-65
2023/10/02 08:29:18;;;;;;;7.00;2.63;;;19.70;64.50;;;;;;5056768;28;20097;-63
2023/10/02 08:31:48;;;;;;;8.40;2.65;;;19.50;64.40;;;;;;5053823;28;20140;-62
2023/10/02 08:34:20;;;;;;;7.60;2.92;;;19.60;64.40;;;;;;5054314;28;20094;-60
2023/10/02 08:37:12;;;;;;;8.88;2.38;;;19.70;64.20;;;;;;5057649;28;20593;-63
2023/10/02 08:39:41;;;;;;;6.47;2.47;;;19.70;64.00;;;;;;5052144;28;20136;-62
2023/10/02 08:42:12;;;;;;;5.28;2.60;;;19.70;64.00;;;;;;5052095;28;20083;-60
2023/10/02 08:44:42;;;;;;;6.85;2.60;;;19.70;63.90;;;;;;5053932;28;20147;-61
2023/10/02 08:47:28;;;;;;;7.43;2.22;;;19.70;64.00;;;;;;5052481;28;20450;-64
2023/10/02 08:50:04;;;;;;;7.93;3.03;;;19.70;63.90;;;;;;5058513;28;20074;-62
2023/10/02 08:52:47;;;;;;;5.30;2.25;;;19.70;63.70;;;;;;5052189;28;20103;-63
2023/10/02 08:55:51;;;;;;;8.60;3.30;;;19.70;63.60;;;;;;5051115;28;20085;-62
2023/10/02 08:58:22;;;;;;;6.85;2.65;;;19.60;63.90;;;;;;5057125;28;20102;-64
2023/10/02 09:06:44;;;;;;;6.40;2.70;;;19.60;63.80;;;;;;5056750;28;20081;-64
2023/10/02 09:11:52;;;;;;;8.65;2.38;;;19.60;63.60;;;;;;5049659;28;20107;-62
2023/10/02 09:20:00;;;;;;;9.10;3.08;;;19.60;63.50;;;;;;5052050;28;20208;-63
2023/10/02 09:22:28;;;;;;;9.57;2.53;;;19.70;63.70;;;;;;5048274;28;20066;-61
2023/10/02 09:25:18;;;;;;;5.63;2.30;;;19.70;63.50;;;;;;5052442;28;20109;-61
2023/10/02 09:27:58;;;;;;;6.28;2.88;;;19.70;63.60;;;;;;5056280;28;20074;-62
2023/10/02 09:33:07;;;;;;;6.32;2.65;;;19.60;63.70;;;;;;5057847;28;20086;-61
2023/10/02 09:38:10;;;;;;;6.75;2.53;;;19.70;63.70;;;;;;5053610;28;20086;-61
2023/10/02 09:40:59;;;;;;;5.22;2.50;;;19.60;63.60;;;;;;5054364;28;20079;-63
2023/10/02 09:43:35;;;;;;;9.93;2.95;;;19.50;63.70;;;;;;5052098;28;20075;-63
2023/10/02 09:46:21;;;;;;;6.55;2.90;;;19.60;63.80;;;;;;5052636;28;20070;-62
2023/10/02 09:49:21;;;;;;;8.35;2.60;;;19.60;63.50;;;;;;5052677;28;20113;-63
2023/10/02 09:55:14;;;;;;;7.50;2.92;;;19.50;63.70;;;;;;4985251;28;20183;-62
2023/10/02 09:57:50;;;;;;;9.25;3.00;;;19.50;63.90;;;;;;4984318;28;20177;-62
2023/10/02 10:03:31;;;;;;;6.72;2.47;;;19.50;63.90;;;;;;4982822;28;20167;-62
2023/10/02 10:06:07;;;;;;;7.65;2.70;;;19.50;63.90;;;;;;4911875;29;20175;-56
2023/10/02 10:11:45;;;;;;;5.65;2.55;;;19.60;64.00;;;;;;4909552;29;20112;-62
2023/10/02 10:14:42;;;;;;;7.10;2.80;;;19.50;63.90;;;;;;4898034;29;20089;-62
2023/10/02 10:17:49;;;;;;;8.18;3.17;;;19.50;65.20;;;;;;4912844;29;20106;-62
2023/10/02 10:20:21;;;;;;;5.90;2.80;;;19.50;64.60;;;;;;4907852;29;20086;-61
2023/10/02 10:22:51;;;;;;;10.90;2.72;;;19.40;65.10;;;;;;4908763;29;20119;-63
2023/10/02 10:28:05;;;;;;;8.52;2.72;;;19.30;66.30;;;;;;4917202;28;20582;-61
2023/10/02 10:30:47;;;;;;;5.35;2.13;;;19.20;65.40;;;;;;4975100;28;20110;-62
2023/10/02 10:35:48;;;;;;;6.55;2.40;;;19.20;66.90;;;;;;4974967;28;20143;-61
2023/10/02 10:41:00;;;;;;;10.43;2.90;;;19.00;67.90;;;;;;4973880;28;20221;-62
2023/10/02 10:46:29;;;;;;;8.52;2.95;;;18.90;68.30;;;;;;5051098;28;20579;-62
2023/10/02 10:49:07;;;;;;;9.88;3.08;;;18.90;68.50;;;;;;5048395;28;20087;-59
2023/10/02 10:51:36;;;;;;;7.00;2.30;;;18.90;68.70;;;;;;5049597;28;20091;-63
2023/10/02 10:54:13;;;;;;;7.28;2.75;;;18.80;69.40;;;;;;5049535;28;20448;-63
2023/10/02 10:56:46;;;;;;;7.60;2.83;;;18.70;69.00;;;;;;5055664;28;20107;-63
2023/10/02 10:59:22;;;;;;;5.70;2.40;;;18.70;69.50;;;;;;5053503;28;20168;-61
2023/10/02 11:02:31;;;;;;;7.18;2.80;;;18.60;69.60;;;;;;5051508;28;20551;-61
2023/10/02 11:04:47;;;;;;;6.97;2.35;;;18.60;69.70;;;;;;5046725;28;20166;-61
2023/10/02 11:07:21;;;;;;;9.43;2.83;;;18.60;69.40;;;;;;5054359;28;20447;-61
2023/10/02 11:12:58;;;;;;;;;;;18.60;69.30;;;;;;5056921;28;20572;-61
2023/10/02 11:18:30;;;;;;;6.28;2.83;;;18.60;68.50;;;;;;5052408;28;20141;-60
2023/10/02 11:20:57;;;;;;;5.97;2.58;;;18.60;68.40;;;;;;5058546;28;20078;-61
2023/10/02 11:23:45;;;;;;;9.02;2.72;;;18.60;68.60;;;;;;5052485;28;20106;-61
2023/10/02 11:26:13;;;;;;;7.38;2.80;;;18.60;68.30;;;;;;5050042;28;20085;-63
2023/10/02 11:28:41;;;;;;;5.93;2.70;;;18.60;68.20;;;;;;5056371;28;20110;-60
2023/10/02 11:31:32;;;;;;;5.00;2.42;;;18.50;68.60;;;;;;5056738;28;20079;-62
2023/10/02 11:34:07;;;;;;;7.35;2.35;;;18.40;69.50;;;;;;5052421;28;20086;-60
2023/10/02 11:36:36;;;;;;;9.05;3.05;;;18.40;69.90;;;;;;5053699;28;20160;-61
2023/10/02 11:39:09;;;;;;;10.13;2.67;;;18.50;69.50;;;;;;5052767;28;20087;-61
2023/10/02 11:41:39;;;;;;;6.78;2.65;;;18.40;69.50;;;;;;5062865;28;20079;-62
2023/10/02 11:44:15;;;;;;;10.68;2.75;;;18.50;69.40;;;;;;5054976;28;20554;-61
2023/10/02 11:46:43;;;;;;;8.73;3.05;;;18.50;68.90;;;;;;5058382;28;20462;-60
2023/10/02 11:49:13;;;;;;;7.78;2.65;;;18.50;69.20;;;;;;5056217;28;20102;-61
2023/10/02 11:51:44;;;;;;;8.32;2.63;;;18.40;69.30;;;;;;5054550;28;20079;-62
2023/10/02 11:54:13;;;;;;;8.68;2.75;;;18.40;69.00;;;;;;5051855;28;20595;-60
2023/10/02 11:56:39;;;;;;;8.85;2.85;;;18.40;69.10;;;;;;5051146;28;20087;-61
2023/10/02 11:59:07;;;;;;;9.85;2.50;;;18.50;69.10;;;;;;5051699;28;20564;-63
2023/10/02 12:01:35;;;;;;;6.03;2.47;;;18.50;69.30;;;;;;5051368;28;20133;-62
2023/10/02 12:04:04;;;;;;;7.75;3.05;;;18.50;68.90;;;;;;5056421;28;20083;-62
2023/10/02 12:06:31;;;;;;;9.68;3.10;;;18.60;68.80;;;;;;5059177;28;20079;-62
2023/10/02 12:09:01;;;;;;;6.18;2.17;;;18.60;68.80;;;;;;5055439;28;20079;-65
2023/10/02 12:11:30;;;;;;;10.20;3.28;;;18.50;68.90;;;;;;5050879;28;20079;-62
2023/10/02 12:13:57;;;;;;;7.55;2.70;;;18.60;68.90;;;;;;5052972;28;20072;-61
2023/10/02 12:16:24;;;;;;;11.10;3.40;;;18.60;69.00;;;;;;5056521;28;20475;-61
2023/10/02 12:18:51;;;;;;;7.43;2.70;;;18.60;69.20;;;;;;5053902;28;20538;-61
2023/10/02 12:21:21;;;;;;;5.97;2.65;;;18.60;68.70;;;;;;5053341;28;20091;-61
2023/10/02 12:23:51;;;;;;;5.07;2.22;;;18.60;69.10;;;;;;5056089;28;20071;-60
2023/10/02 12:26:20;;;;;;;7.63;2.75;;;18.60;69.00;;;;;;5062646;28;20085;-62
2023/10/02 12:28:47;;;;;;;6.93;2.38;;;18.50;68.90;;;;;;5059223;28;20140;-60
2023/10/02 12:31:14;;;;;;;7.68;2.75;;;18.60;68.90;;;;;;5055027;28;20105;-56
2023/10/02 12:33:42;;;;;;;6.68;2.35;;;18.60;68.40;;;;;;5051390;28;20083;-62
2023/10/02 12:36:22;;;;;;;7.55;2.55;;;18.60;68.50;;;;;;5051228;28;20083;-60
2023/10/02 12:38:50;;;;;;;15.25;3.33;;;18.60;68.20;;;;;;5048897;28;20099;-60
2023/10/02 12:41:24;;;;;;;8.55;3.40;;;18.50;68.30;;;;;;5050729;28;20085;-63
2023/10/02 12:44:02;;;;;;;12.70;2.70;;;18.60;68.30;;;;;;5050483;28;20076;-62
2023/10/02 12:46:30;;;;;;;9.80;3.00;;;18.60;68.20;;;;;;5052467;28;20083;-60
2023/10/02 12:48:58;;;;;;;8.18;2.50;;;18.60;68.10;;;;;;5051858;28;20086;-62
2023/10/02 12:51:26;;;;;;;6.95;2.60;;;18.60;68.30;;;;;;5051424;28;20117;-57
2023/10/02 12:53:53;;;;;;;9.70;2.75;;;18.60;68.20;;;;;;5051414;28;20117;-63
2023/10/02 12:56:21;;;;;;;6.20;2.53;;;18.60;68.00;;;;;;5055796;28;20162;-61
2023/10/02 12:58:55;;;;;;;6.15;2.60;;;18.60;67.70;;;;;;5054806;28;20137;-61
2023/10/02 13:01:27;;;;;;;13.60;3.17;;;18.60;67.80;;;;;;5051896;28;20087;-61
2023/10/02 13:03:59;;;;;;;5.63;2.28;;;18.50;67.90;;;;;;5052075;28;20079;-58
2023/10/02 13:06:28;;;;;;;7.80;3.10;;;18.50;68.20;;;;;;5055049;28;20094;-63
2023/10/02 13:09:01;;;;;;;8.75;3.00;;;18.50;68.50;;;;;;5054473;28;20447;-61
2023/10/02 13:11:27;;;;;;;7.35;2.65;;;18.60;68.20;;;;;;5060217;28;20193;-63
2023/10/02 13:13:55;;;;;;;8.45;2.92;;;18.50;68.00;;;;;;5054305;28;20087;-60
2023/10/02 13:16:24;;;;;;;9.60;2.80;;;18.40;68.00;;;;;;5051909;28;20118;-61
2023/10/02 13:18:50;;;;;;;9.10;2.60;;;18.40;68.70;;;;;;5054831;28;20095;-62
2023/10/02 13:21:21;;;;;;;12.45;2.95;;;18.40;68.70;;;;;;5055492;28;20543;-62
2023/10/02 13:23:51;;;;;;;5.82;2.38;;;18.50;68.70;;;;;;5055693;28;20174;-62
2023/10/02 13:26:19;;;;;;;9.95;2.67;;;18.40;68.60;;;;;;5052964;28;20082;-63
2023/10/02 13:28:52;;;;;;;8.13;2.75;;;18.40;68.90;;;;;;5049701;28;20075;-64
2023/10/02 13:31:19;;;;;;;35.05;4.25;;;18.50;68.70;;;;;;5049570;28;20096;-65
2023/10/02 13:33:51;;;;;;;42.22;5.20;;;18.50;68.60;;;;;;5050612;28;20115;-62
2023/10/02 13:36:22;;;;;;;24.42;4.18;;;18.50;68.30;;;;;;5052773;28;20086;-64
2023/10/02 13:38:51;;;;;;;20.83;4.03;;;18.50;68.20;;;;;;5049744;28;20097;-62
2023/10/02 13:41:18;;;;;;;20.65;3.47;;;18.50;68.50;;;;;;5052380;28;20077;-63
2023/10/02 13:43:48;;;;;;;14.27;2.95;;;18.50;68.70;;;;;;5054979;28;20537;-63
2023/10/02 13:46:16;;;;;;;21.00;3.67;;;18.30;69.30;;;;;;5052846;28;20171;-62
2023/10/02 13:48:47;;;;;;;9.73;2.55;;;18.20;69.70;;;;;;5052257;28;20092;-61
2023/10/02 13:51:16;;;;;;;11.30;3.30;;;18.30;69.90;;;;;;5054109;28;20554;-62
2023/10/02 13:53:43;;;;;;;18.15;3.20;;;18.30;70.10;;;;;;5063787;28;20141;-61
2023/10/02 13:56:19;;;;;;;14.73;4.13;;;18.30;70.50;;;;;;5050291;28;20470;-60
2023/10/02 13:58:51;;;;;;;16.38;3.90;;;18.30;70.60;;;;;;5055879;28;20133;-61
2023/10/02 14:01:24;;;;;;;15.85;3.95;;;18.30;70.90;;;;;;5052504;28;20121;-61
2023/10/02 14:03:52;;;;;;;9.63;3.55;;;18.30;70.60;;;;;;5050135;28;20122;-62
2023/10/02 14:06:24;;;;;;;27.25;4.32;;;18.30;70.70;;;;;;5051183;28;20133;-61
2023/10/02 14:08:51;;;;;;;11.23;3.97;;;18.40;71.00;;;;;;5051421;28;20417;-61
2023/10/02 14:11:23;;;;;;;13.40;3.60;;;18.40;70.90;;;;;;5048127;28;20083;-62
2023/10/02 14:13:51;;;;;;;11.98;3.97;;;18.40;70.80;;;;;;5057156;28;20075;-61
2023/10/02 14:16:23;;;;;;;18.73;4.25;;;18.40;70.60;;;;;;5061849;28;20082;-62
2023/10/02 14:18:56;;;;;;;17.98;3.78;;;18.50;70.90;;;;;;5056433;28;20646;-61
2023/10/02 14:21:25;;;;;;;20.58;4.32;;;18.50;71.40;;;;;;5054890;28;20083;-60
2023/10/02 14:23:52;;;;;;;11.38;4.28;;;18.50;71.00;;;;;;5052003;28;20079;-61
2023/10/02 14:26:25;;;;;;;19.48;4.28;;;18.50;71.50;;;;;;5049283;28;20609;-62
2023/10/02 14:28:52;;;;;;;22.00;4.72;;;18.40;70.80;;;;;;5052294;28;20128;-58
2023/10/02 14:31:31;;;;;;;18.58;4.15;;;18.50;70.40;;;;;;5050409;28;20089;-60
2023/10/02 14:33:58;;;;;;;23.50;4.43;;;18.50;70.70;;;;;;5050475;28;20137;-60
2023/10/02 14:36:25;;;;;;;40.67;4.05;;;18.50;70.50;;;;;;5050358;28;20221;-60
2023/10/02 14:38:56;;;;;;;18.48;4.40;;;18.60;70.70;;;;;;5054139;28;20104;-61
2023/10/02 14:41:25;;;;;;;20.73;3.90;;;18.60;70.50;;;;;;5057024;28;20083;-61
2023/10/02 14:43:53;;;;;;;27.23;4.30;;;18.70;70.20;;;;;;5052531;28;20068;-61
2023/10/02 14:46:19;;;;;;;27.45;3.70;;;18.70;69.60;;;;;;5059761;28;20145;-62
2023/10/02 14:48:46;;;;;;;20.92;4.20;;;18.80;69.40;;;;;;5051991;28;20598;-61